Time;durP1;ratioP1;P1;durP2;ratioP2;P2;SDS_P1;SDS_P2;PMS_P1;PMS_P2;Temp;Humidity;BMP_temperature;BMP_pressure;BME280_temperature;BME280_humidity;BME280_pressure;Samples;Min_cycle;Max_cycle;Signal;HPM_P1;HPM_P2
2022/03/31 00:00:54;;;;;;;19.43;12.30;;;;;;;;;;5123386;28;20499;-69
2022/03/31 00:03:22;;;;;;;18.43;12.30;;;;;;;;;;5127027;28;20463;-70
2022/03/31 00:05:49;;;;;;;18.47;13.47;;;;;;;;;;5123555;28;20453;-69
2022/03/31 00:08:19;;;;;;;19.57;12.80;;;;;;;;;;5116177;28;20487;-69
2022/03/31 00:10:47;;;;;;;17.23;11.60;;;;;;;;;;5128807;28;21050;-69
2022/03/31 00:13:15;;;;;;;21.10;13.63;;;;;;;;;;5130341;28;20446;-69
2022/03/31 00:15:42;;;;;;;19.87;13.40;;;;;;;;;;5126107;28;20508;-69
2022/03/31 00:18:10;;;;;;;20.33;12.07;;;;;;;;;;5113800;28;20444;-69
2022/03/31 00:20:37;;;;;;;17.20;12.20;;;;;;;;;;5126552;28;20443;-69
2022/03/31 00:23:05;;;;;;;20.40;13.20;;;;;;;;;;5122753;28;20792;-70
2022/03/31 00:25:33;;;;;;;20.10;12.50;;;;;;;;;;5126571;28;20857;-69
2022/03/31 00:28:03;;;;;;;24.53;11.77;;;;;;;;;;5125946;28;20450;-70
2022/03/31 00:30:30;;;;;;;18.77;12.40;;;;;;;;;;5104884;28;20811;-69
2022/03/31 00:32:58;;;;;;;18.80;12.20;;;;;;;;;;5129515;28;20455;-69
2022/03/31 00:35:25;;;;;;;20.20;13.60;;;;;;;;;;5124388;28;20443;-70
2022/03/31 00:37:53;;;;;;;19.17;12.97;;;;;;;;;;5112714;27;20546;-69
2022/03/31 00:40:21;;;;;;;17.80;12.77;;;;;;;;;;5131711;27;20506;-69
2022/03/31 00:42:51;;;;;;;16.97;12.30;;;;;;;;;;5134355;27;20534;-69
2022/03/31 00:45:19;;;;;;;15.43;10.70;;;;;;;;;;5128378;27;20517;-70
2022/03/31 00:47:46;;;;;;;16.10;11.17;;;;;;;;;;5131396;27;20754;-69
2022/03/31 00:50:14;;;;;;;13.10;10.23;;;;;;;;;;5129113;27;20982;-69
2022/03/31 00:52:42;;;;;;;12.80;9.23;;;;;;;;;;5126838;27;20796;-70
2022/03/31 00:55:10;;;;;;;14.43;9.77;;;;;;;;;;5128879;27;20449;-70
2022/03/31 00:57:37;;;;;;;17.37;10.57;;;;;;;;;;5130094;27;20440;-69
2022/03/31 01:00:07;;;;;;;14.70;11.00;;;;;;;;;;5118828;27;20969;-69
2022/03/31 01:02:35;;;;;;;13.90;10.40;;;;;;;;;;5129216;27;20534;-71
2022/03/31 01:05:03;;;;;;;14.77;9.90;;;;;;;;;;5129384;27;20449;-69
2022/03/31 01:07:30;;;;;;;14.50;10.13;;;;;;;;;;5127687;27;20527;-70
2022/03/31 01:09:58;;;;;;;15.97;11.43;;;;;;;;;;5102144;27;20507;-69
2022/03/31 01:12:25;;;;;;;16.50;10.87;;;;;;;;;;5103768;27;20477;-69
2022/03/31 01:15:06;;;;;;;19.30;10.67;;;;;;;;;;5113491;27;20452;-70
2022/03/31 01:17:33;;;;;;;14.30;10.63;;;;;;;;;;5116282;27;20441;-69
2022/03/31 01:20:00;;;;;;;17.90;10.90;;;;;;;;;;5114993;27;20488;-69
2022/03/31 01:22:29;;;;;;;14.50;10.67;;;;;;;;;;5109984;27;20530;-70
2022/03/31 01:24:58;;;;;;;14.07;10.67;;;;;;;;;;5116865;27;21010;-70
2022/03/31 01:27:26;;;;;;;17.67;10.20;;;;;;;;;;5125317;27;20448;-69
2022/03/31 01:29:53;;;;;;;13.87;10.50;;;;;;;;;;5121208;27;20490;-69
2022/03/31 01:32:21;;;;;;;18.40;12.07;;;;;;;;;;5129678;27;20446;-69
2022/03/31 01:34:48;;;;;;;17.43;10.63;;;;;;;;;;5134893;27;20461;-69
2022/03/31 01:37:15;;;;;;;13.40;9.53;;;;;;;;;;5115352;27;20477;-69
2022/03/31 01:39:43;;;;;;;14.13;9.30;;;;;;;;;;5133506;27;20560;-69
2022/03/31 01:42:12;;;;;;;12.10;8.20;;;;;;;;;;5126597;27;20555;-69
2022/03/31 01:44:39;;;;;;;11.70;8.70;;;;;;;;;;5124837;27;20495;-69
2022/03/31 01:47:07;;;;;;;17.17;10.00;;;;;;;;;;5125703;27;20447;-70
2022/03/31 01:49:34;;;;;;;14.90;10.40;;;;;;;;;;5131360;27;20447;-70
2022/03/31 01:52:01;;;;;;;12.33;8.80;;;;;;;;;;5131390;27;20449;-71
2022/03/31 01:54:30;;;;;;;13.23;9.43;;;;;;;;;;5133714;27;20537;-69
2022/03/31 01:56:57;;;;;;;13.57;8.90;;;;;;;;;;5117803;27;20459;-70
2022/03/31 01:59:32;;;;;;;11.07;8.80;;;;;;;;;;5120189;27;20465;-69
2022/03/31 02:01:59;;;;;;;15.60;11.23;;;;;;;;;;5126314;27;20452;-70
2022/03/31 02:04:27;;;;;;;16.90;9.30;;;;;;;;;;5119166;27;20510;-70
2022/03/31 02:06:54;;;;;;;15.30;9.57;;;;;;;;;;5128047;27;20545;-69
2022/03/31 02:09:21;;;;;;;13.13;9.47;;;;;;;;;;5117805;27;20454;-69
2022/03/31 02:11:48;;;;;;;13.13;8.60;;;;;;;;;;5124887;27;20571;-69
2022/03/31 02:14:15;;;;;;;13.57;9.60;;;;;;;;;;5125637;27;20454;-70
2022/03/31 02:16:45;;;;;;;13.10;8.80;;;;;;;;;;5125976;27;20960;-69
2022/03/31 02:19:13;;;;;;;13.53;9.07;;;;;;;;;;5124779;27;20453;-70
2022/03/31 02:21:40;;;;;;;14.30;9.80;;;;;;;;;;5126117;27;20476;-70
2022/03/31 02:24:08;;;;;;;15.97;10.03;;;;;;;;;;5132970;27;20485;-69
2022/03/31 02:26:35;;;;;;;14.33;10.10;;;;;;;;;;5128021;27;20473;-69
2022/03/31 02:29:03;;;;;;;14.07;10.27;;;;;;;;;;5132512;27;20478;-69
2022/03/31 02:31:30;;;;;;;12.30;9.40;;;;;;;;;;5119773;27;20477;-69
2022/03/31 02:33:59;;;;;;;12.77;9.10;;;;;;;;;;5122303;27;20449;-69
2022/03/31 02:36:27;;;;;;;17.13;8.87;;;;;;;;;;5121692;27;20456;-69
2022/03/31 02:38:54;;;;;;;12.90;9.00;;;;;;;;;;5117127;27;20478;-69
2022/03/31 02:41:21;;;;;;;14.00;9.87;;;;;;;;;;5131975;27;20450;-68
2022/03/31 02:43:49;;;;;;;13.47;9.33;;;;;;;;;;5130650;27;20438;-69
2022/03/31 02:46:16;;;;;;;11.17;8.60;;;;;;;;;;5128340;27;20458;-69
2022/03/31 02:48:43;;;;;;;15.40;10.03;;;;;;;;;;5131687;27;20443;-70
2022/03/31 02:51:12;;;;;;;15.00;10.77;;;;;;;;;;5131264;27;20471;-69
2022/03/31 02:56:23;;;;;;;16.10;10.60;;;9.00;1.00;;;;;;5113285;27;20441;-69
2022/03/31 02:58:50;;;;;;;13.50;9.93;;;8.90;99.90;;;;;;5132037;27;20947;-70
2022/03/31 03:01:17;;;;;;;13.57;10.10;;;8.90;99.90;;;;;;5117654;27;20446;-69
2022/03/31 03:03:44;;;;;;;13.80;9.93;;;8.70;1.00;;;;;;5122353;27;20447;-70
2022/03/31 03:06:13;;;;;;;15.67;10.53;;;8.70;1.00;;;;;;5118135;27;20457;-69
2022/03/31 03:08:39;;;;;;;14.60;10.53;;;8.60;99.90;;;;;;5116377;27;20460;-69
2022/03/31 03:11:07;;;;;;;14.30;11.47;;;8.50;99.90;;;;;;5115159;27;20844;-69
2022/03/31 03:13:35;;;;;;;16.43;10.67;;;8.50;99.90;;;;;;5124961;27;20447;-69
2022/03/31 03:16:05;;;;;;;15.43;10.03;;;8.50;1.00;;;;;;5124709;27;20874;-69
2022/03/31 03:18:33;;;;;;;15.20;11.03;;;8.30;61.70;;;;;;5130534;27;20472;-69
2022/03/31 03:20:59;;;;;;;14.70;10.33;;;8.50;99.90;;;;;;5120515;27;20446;-69
2022/03/31 03:23:28;;;;;;;15.20;10.50;;;8.40;1.00;;;;;;5127985;27;20449;-69
2022/03/31 03:25:55;;;;;;;12.70;9.43;;;8.30;1.00;;;;;;5115912;27;20498;-69
2022/03/31 03:28:22;;;;;;;16.13;10.33;;;8.40;99.90;;;;;;5131064;27;20529;-69
2022/03/31 03:30:49;;;;;;;13.87;10.57;;;8.40;93.70;;;;;;5115201;27;20566;-70
2022/03/31 03:33:16;;;;;;;17.13;12.27;;;;;;;;;;5126976;27;20446;-69
2022/03/31 03:35:43;;;;;;;15.80;10.70;;;;;;;;;;5127061;27;20479;-68
2022/03/31 03:38:10;;;;;;;18.23;12.40;;;;;;;;;;5115840;27;20854;-70
2022/03/31 03:40:39;;;;;;;28.47;19.83;;;;;;;;;;5120629;27;20528;-69
2022/03/31 03:43:06;;;;;;;14.53;11.33;;;;;;;;;;5127693;27;20442;-69
2022/03/31 03:45:34;;;;;;;15.20;11.20;;;;;;;;;;5120320;27;20530;-69
2022/03/31 03:48:01;;;;;;;18.23;11.50;;;;;;;;;;5129428;27;20454;-69
2022/03/31 03:50:28;;;;;;;16.60;10.90;;;;;;;;;;5130864;27;20443;-69
2022/03/31 03:52:55;;;;;;;19.47;12.13;;;;;;;;;;5131311;28;20457;-69
2022/03/31 03:55:23;;;;;;;17.40;11.83;;;;;;;;;;5121944;28;20946;-69
2022/03/31 03:57:52;;;;;;;13.70;11.50;;;;;;;;;;5128936;28;20820;-69
2022/03/31 04:00:19;;;;;;;13.40;10.87;;;;;;;;;;5129630;28;20442;-69
2022/03/31 04:02:46;;;;;;;12.47;10.27;;;;;;;;;;5130766;28;20453;-69
2022/03/31 04:05:13;;;;;;;15.47;10.57;;;;;;;;;;5126940;28;20910;-69
2022/03/31 04:07:41;;;;;;;15.10;12.30;;;;;;;;;;5122166;28;20448;-70
2022/03/31 04:10:09;;;;;;;15.07;11.20;;;;;;;;;;5124359;28;20447;-69
2022/03/31 04:12:37;;;;;;;14.97;11.30;;;;;;;;;;5117975;27;20478;-70
2022/03/31 04:15:06;;;;;;;15.70;11.07;;;;;;;;;;5128295;27;20455;-70
2022/03/31 04:17:33;;;;;;;14.50;10.80;;;;;;;;;;5117887;27;20479;-68
2022/03/31 04:20:01;;;;;;;13.60;10.90;;;;;;;;;;5127035;27;20983;-69
2022/03/31 04:22:28;;;;;;;14.30;10.20;;;;;;;;;;5135983;27;20450;-69
2022/03/31 04:24:55;;;;;;;14.40;11.57;;;;;;;;;;5123621;27;20790;-69
2022/03/31 04:27:22;;;;;;;17.03;10.30;;;;;;;;;;5135109;27;20939;-70
2022/03/31 04:29:49;;;;;;;18.20;10.47;;;;;;;;;;5135469;27;20810;-71
2022/03/31 04:32:18;;;;;;;18.27;12.47;;;;;;;;;;5134673;27;20474;-69
2022/03/31 04:34:45;;;;;;;15.70;11.13;;;;;;;;;;5135321;27;20442;-69
2022/03/31 04:37:12;;;;;;;15.40;11.27;;;;;;;;;;5110431;27;20468;-71
2022/03/31 04:39:39;;;;;;;15.73;11.03;;;;;;;;;;5131283;27;20517;-68
2022/03/31 04:42:09;;;;;;;17.93;11.80;;;;;;;;;;5129593;27;20447;-70
2022/03/31 04:44:37;;;;;;;16.17;11.60;;;;;;;;;;5130790;27;20461;-70
2022/03/31 04:47:05;;;;;;;14.13;11.70;;;;;;;;;;5124827;27;20874;-70
2022/03/31 04:49:34;;;;;;;17.40;11.73;;;;;;;;;;5131139;27;20479;-70
2022/03/31 04:52:01;;;;;;;17.13;12.07;;;;;;;;;;5123527;27;20521;-70
2022/03/31 04:54:28;;;;;;;15.60;11.53;;;8.40;1.00;;;;;;5128119;27;20529;-70
2022/03/31 04:56:55;;;;;;;14.50;11.60;;;7.60;1.00;;;;;;5134124;27;20968;-69
2022/03/31 04:59:22;;;;;;;17.87;11.97;;;7.70;1.00;;;;;;5134749;27;20447;-70
2022/03/31 05:01:48;;;;;;;16.20;11.63;;;7.60;1.00;;;;;;5129997;27;20534;-69
2022/03/31 05:04:16;;;;;;;17.97;12.93;;;7.80;1.00;;;;;;5134417;27;20549;-70
2022/03/31 05:06:44;;;;;;;14.90;12.10;;;7.60;1.00;;;;;;5121743;27;20467;-73
2022/03/31 05:09:11;;;;;;;15.43;12.00;;;7.70;1.00;;;;;;5118573;27;20446;-69
2022/03/31 05:11:38;;;;;;;17.40;12.67;;;7.90;1.00;;;;;;5134736;27;20521;-71
2022/03/31 05:14:05;;;;;;;19.23;12.77;;;7.70;99.90;;;;;;5133855;27;20851;-70
2022/03/31 05:16:32;;;;;;;17.47;12.80;;;7.80;99.90;;;;;;5134391;27;20443;-70
2022/03/31 05:18:59;;;;;;;15.07;11.17;;;;;;;;;;5133872;27;20529;-70
2022/03/31 05:21:26;;;;;;;15.07;10.63;;;;;;;;;;5134914;27;20450;-70
2022/03/31 05:23:55;;;;;;;17.80;12.33;;;;;;;;;;5133025;27;20449;-70
2022/03/31 05:26:22;;;;;;;15.83;11.23;;;;;;;;;;5134621;27;20549;-70
2022/03/31 05:28:49;;;;;;;13.40;9.93;;;;;;;;;;5134298;27;20529;-70
2022/03/31 05:31:16;;;;;;;15.77;11.00;;;;;;;;;;5133361;27;20569;-70
2022/03/31 05:33:43;;;;;;;17.03;11.07;;;;;;;;;;5134491;27;20478;-70
2022/03/31 05:36:10;;;;;;;14.03;10.23;;;;;;;;;;5132447;27;20451;-70
2022/03/31 05:38:38;;;;;;;13.53;10.13;;;;;;;;;;5121613;27;20478;-70
2022/03/31 05:41:06;;;;;;;13.57;10.43;;;;;;;;;;5133338;27;20953;-71
2022/03/31 05:43:33;;;;;;;14.47;10.93;;;7.70;99.90;;;;;;5133981;27;20447;-70
2022/03/31 05:46:00;;;;;;;14.20;10.50;;;7.60;99.90;;;;;;5133462;27;20530;-70
2022/03/31 05:48:27;;;;;;;15.27;10.97;;;7.60;1.00;;;;;;5133963;27;20534;-70
2022/03/31 05:50:54;;;;;;;16.63;11.10;;;7.70;52.90;;;;;;5133090;27;20787;-69
2022/03/31 05:53:21;;;;;;;19.60;12.37;;;7.70;1.00;;;;;;5134212;27;20810;-71
2022/03/31 05:55:49;;;;;;;15.07;11.63;;;7.70;99.90;;;;;;5133724;27;20461;-71
2022/03/31 05:58:17;;;;;;;14.60;12.57;;;8.00;99.90;;;;;;5133247;27;20514;-70
2022/03/31 06:00:44;;;;;;;15.53;10.97;;;7.80;99.90;;;;;;5133635;27;20529;-71
2022/03/31 06:03:11;;;;;;;16.93;11.93;;;7.70;99.90;;;;;;5134032;27;20538;-71
2022/03/31 06:05:38;;;;;;;15.40;11.60;;;7.60;1.00;;;;;;5135346;27;20454;-71
2022/03/31 06:08:05;;;;;;;18.60;11.47;;;7.70;50.20;;;;;;5126234;27;20972;-71
2022/03/31 06:10:32;;;;;;;18.53;13.40;;;7.70;1.00;;;;;;5134555;27;20957;-71
2022/03/31 06:12:59;;;;;;;14.87;11.87;;;7.80;1.00;;;;;;5136496;27;20881;-71
2022/03/31 06:15:28;;;;;;;15.23;11.20;;;7.80;1.00;;;;;;5136173;27;20853;-72
2022/03/31 06:17:56;;;;;;;12.77;9.93;;;7.90;1.00;;;;;;5134859;27;20446;-71
2022/03/31 06:20:22;;;;;;;16.70;12.50;;;8.10;1.00;;;;;;5134068;27;20478;-72
2022/03/31 06:22:49;;;;;;;11.47;9.83;;;7.90;46.70;;;;;;5133425;27;20542;-71
2022/03/31 06:25:17;;;;;;;16.63;11.43;;;8.10;99.90;;;;;;5132684;27;20935;-71
2022/03/31 06:27:46;;;;;;;15.57;11.60;;;8.00;1.00;;;;;;5121447;27;20451;-71
2022/03/31 06:30:14;;;;;;;14.80;10.93;;;8.10;56.40;;;;;;5131128;27;20685;-71
2022/03/31 06:32:43;;;;;;;13.90;10.70;;;7.80;99.90;;;;;;5133377;27;20474;-72
2022/03/31 06:35:14;;;;;;;14.30;10.80;;;7.90;99.90;;;;;;5132756;27;20492;-71
2022/03/31 06:37:41;;;;;;;15.50;11.13;;;7.80;99.90;;;;;;5118299;27;20755;-71
2022/03/31 06:40:10;;;;;;;18.60;11.50;;;8.00;1.00;;;;;;5132382;27;20474;-70
2022/03/31 06:42:37;;;;;;;14.70;11.47;;;8.10;1.00;;;;;;5133347;27;20486;-71
2022/03/31 06:45:05;;;;;;;13.10;11.70;;;8.10;1.00;;;;;;5132419;27;20491;-71
2022/03/31 06:47:31;;;;;;;16.90;12.20;;;7.90;13.60;;;;;;5132459;27;20526;-70
2022/03/31 06:50:00;;;;;;;16.37;12.23;;;8.10;1.00;;;;;;5132652;27;20531;-69
2022/03/31 06:52:26;;;;;;;34.60;13.90;;;8.00;99.90;;;;;;5132905;27;20504;-71
2022/03/31 06:54:54;;;;;;;14.40;11.50;;;7.80;1.00;;;;;;5132698;27;20806;-71
2022/03/31 06:57:21;;;;;;;14.50;10.37;;;8.10;1.00;;;;;;5132451;27;20454;-71
2022/03/31 06:59:48;;;;;;;15.30;11.53;;;8.20;99.90;;;;;;5132931;27;20478;-71
2022/03/31 07:02:15;;;;;;;17.47;12.80;;;8.20;4.40;;;;;;5132075;27;20859;-71
2022/03/31 07:04:42;;;;;;;21.40;12.70;;;8.10;99.90;;;;;;5132535;27;20447;-72
2022/03/31 07:07:10;;;;;;;17.33;12.30;;;8.20;99.90;;;;;;5131294;27;20865;-71
2022/03/31 07:09:37;;;;;;;17.03;10.83;;;8.10;1.00;;;;;;5122140;27;20493;-70
2022/03/31 07:12:05;;;;;;;17.97;12.47;;;8.20;99.90;;;;;;5131428;27;20474;-71
2022/03/31 07:14:36;;;;;;;22.33;14.03;;;8.40;1.00;;;;;;5132740;27;20473;-72
2022/03/31 07:17:03;;;;;;;14.33;11.90;;;8.20;1.00;;;;;;5131001;27;20458;-70
2022/03/31 07:19:30;;;;;;;17.03;11.70;;;8.20;1.00;;;;;;5132419;27;20478;-72
2022/03/31 07:21:57;;;;;;;16.57;12.77;;;8.40;99.90;;;;;;5131815;27;20541;-70
2022/03/31 07:24:25;;;;;;;19.37;13.47;;;8.20;96.40;;;;;;5132036;27;20512;-71
2022/03/31 07:26:52;;;;;;;23.03;13.40;;;8.10;1.00;;;;;;5131877;27;20455;-70
2022/03/31 07:29:19;;;;;;;18.03;12.80;;;8.10;1.00;;;;;;5132178;27;20451;-71
2022/03/31 07:31:46;;;;;;;18.10;12.23;;;8.30;1.00;;;;;;5131879;27;20497;-70
2022/03/31 07:34:13;;;;;;;16.80;12.53;;;8.50;99.90;;;;;;5131384;27;20994;-70
2022/03/31 07:36:40;;;;;;;17.87;12.20;;;8.50;1.00;;;;;;5126275;27;20500;-70
2022/03/31 07:39:08;;;;;;;18.93;13.37;;;8.40;1.00;;;;;;5123087;27;20474;-70
2022/03/31 07:41:36;;;;;;;16.63;11.87;;;8.50;99.90;;;;;;5131621;27;20493;-70
2022/03/31 07:44:03;;;;;;;19.17;13.40;;;8.70;1.00;;;;;;5131617;27;20447;-70
2022/03/31 07:46:32;;;;;;;16.47;12.20;;;8.70;99.90;;;;;;5131303;27;20495;-71
2022/03/31 07:48:59;;;;;;;13.43;10.70;;;8.60;1.00;;;;;;5131313;27;20485;-70
2022/03/31 07:51:27;;;;;;;16.10;11.70;;;8.70;99.90;;;;;;5105089;28;20458;-70
2022/03/31 07:53:54;;;;;;;14.87;11.80;;;8.90;1.00;;;;;;5131711;28;20446;-70
2022/03/31 07:56:21;;;;;;;15.97;11.23;;;8.90;1.00;;;;;;5131943;28;20466;-69
2022/03/31 07:58:50;;;;;;;15.07;12.70;;;8.70;6.20;;;;;;5131418;27;20446;-70
2022/03/31 08:01:17;;;;;;;16.40;11.27;;;8.80;99.90;;;;;;5123756;28;20867;-71
2022/03/31 08:03:44;;;;;;;19.33;11.40;;;8.80;1.40;;;;;;5126038;28;20457;-71
2022/03/31 08:06:10;;;;;;;21.53;12.80;;;9.10;1.00;;;;;;5131229;27;20926;-70
2022/03/31 08:08:38;;;;;;;17.73;12.27;;;8.80;99.90;;;;;;5119767;28;20818;-70
2022/03/31 08:11:05;;;;;;;21.37;13.40;;;9.10;99.90;;;;;;5131299;27;20449;-70
2022/03/31 08:13:32;;;;;;;17.10;12.23;;;8.70;1.00;;;;;;5131399;28;20521;-70
2022/03/31 08:16:00;;;;;;;17.50;12.60;;;9.00;99.90;;;;;;5130887;28;20430;-71
2022/03/31 08:18:28;;;;;;;15.17;12.20;;;8.80;93.50;;;;;;5131428;28;20443;-71
2022/03/31 08:20:56;;;;;;;15.10;11.23;;;8.60;99.90;;;;;;5131188;27;20457;-70
2022/03/31 08:23:23;;;;;;;15.80;12.70;;;8.90;1.00;;;;;;5131577;28;20834;-71
2022/03/31 08:25:50;;;;;;;15.23;11.07;;;8.70;99.90;;;;;;5131790;28;20446;-70
2022/03/31 08:28:17;;;;;;;18.30;12.50;;;8.90;1.00;;;;;;5130173;28;20986;-71
2022/03/31 08:30:44;;;;;;;20.00;13.67;;;9.00;1.00;;;;;;5131739;27;20490;-70
2022/03/31 08:33:13;;;;;;;18.03;12.40;;;9.00;99.90;;;;;;5130867;28;20565;-70
2022/03/31 08:35:40;;;;;;;18.77;12.27;;;9.10;1.00;;;;;;5131284;28;20450;-71
2022/03/31 08:38:06;;;;;;;16.77;11.60;;;9.00;1.00;;;;;;5116175;28;20461;-70
2022/03/31 08:40:36;;;;;;;16.80;12.20;;;7.90;99.90;;;;;;5131506;27;20439;-71
2022/03/31 08:43:03;;;;;;;18.60;13.37;;;9.20;99.90;;;;;;5130216;28;20447;-70
2022/03/31 08:45:34;;;;;;;17.47;13.13;;;9.10;99.90;;;;;;5131017;28;20475;-70
2022/03/31 08:48:01;;;;;;;18.60;12.43;;;9.00;94.30;;;;;;5130247;27;20924;-71
2022/03/31 08:50:30;;;;;;;20.70;13.50;;;9.00;99.90;;;;;;5131232;28;20448;-70
2022/03/31 08:52:57;;;;;;;22.60;12.73;;;;;;;;;;5130636;28;20499;-71
2022/03/31 08:55:24;;;;;;;14.80;11.70;;;9.10;69.00;;;;;;5131314;28;20442;-70
2022/03/31 08:57:54;;;;;;;16.30;12.20;;;9.30;99.90;;;;;;5130865;27;20447;-70
2022/03/31 09:00:22;;;;;;;15.97;11.63;;;9.30;99.90;;;;;;5134398;27;20447;-71
2022/03/31 09:02:53;;;;;;;17.27;12.60;;;;;;;;;;5135205;27;20453;-71
2022/03/31 09:05:20;;;;;;;15.57;11.87;;;;;;;;;;5134583;27;20904;-70
2022/03/31 09:08:00;;;;;;;17.47;13.70;;;;;;;;;;5128723;27;20451;-71
2022/03/31 09:10:28;;;;;;;20.73;14.77;;;;;;;;;;5131165;27;20482;-70
2022/03/31 09:12:55;;;;;;;18.03;13.23;;;;;;;;;;5134231;27;20565;-69
2022/03/31 09:15:22;;;;;;;20.60;14.90;;;;;;;;;;5134658;27;20451;-70
2022/03/31 09:17:54;;;;;;;20.13;13.43;;;;;;;;;;5134518;27;20474;-72
2022/03/31 09:20:22;;;;;;;17.80;12.63;;;;;;;;;;5134956;27;20950;-70
2022/03/31 09:22:50;;;;;;;19.87;13.40;;;;;;;;;;5134767;27;20465;-71
2022/03/31 09:25:25;;;;;;;19.83;15.00;;;;;;;;;;5133964;27;20442;-70
2022/03/31 09:27:52;;;;;;;17.63;12.83;;;;;;;;;;5134064;27;20440;-71
2022/03/31 09:30:19;;;;;;;18.10;14.10;;;;;;;;;;5134402;27;20472;-70
2022/03/31 09:32:47;;;;;;;21.10;16.50;;;;;;;;;;5134172;27;20478;-71
2022/03/31 09:35:17;;;;;;;17.43;13.50;;;;;;;;;;5134041;27;21134;-71
2022/03/31 09:37:45;;;;;;;21.07;15.03;;;;;;;;;;5120287;27;20454;-71
2022/03/31 09:40:12;;;;;;;18.30;13.30;;;;;;;;;;5133678;27;20814;-70
2022/03/31 09:42:40;;;;;;;18.90;13.53;;;;;;;;;;5134389;27;20473;-70
2022/03/31 09:45:10;;;;;;;19.10;14.03;;;;;;;;;;5133715;27;20532;-71
2022/03/31 09:47:44;;;;;;;17.90;14.30;;;;;;;;;;5133557;27;20475;-71
2022/03/31 09:50:12;;;;;;;21.03;14.30;;;;;;;;;;5133688;27;20438;-71
2022/03/31 09:52:40;;;;;;;21.30;13.23;;;;;;;;;;5133997;27;20486;-71
2022/03/31 09:55:08;;;;;;;18.80;13.80;;;;;;;;;;5133664;27;20450;-71
2022/03/31 09:57:36;;;;;;;19.70;13.30;;;;;;;;;;5133542;27;20443;-70
2022/03/31 10:00:06;;;;;;;19.80;13.50;;;;;;;;;;5133679;27;20541;-70
2022/03/31 10:02:33;;;;;;;19.27;14.77;;;;;;;;;;5133367;27;20931;-71
2022/03/31 10:05:01;;;;;;;20.83;13.40;;;;;;;;;;5133597;27;20443;-71
2022/03/31 10:07:30;;;;;;;20.27;14.13;;;;;;;;;;5130427;27;20446;-70
2022/03/31 10:09:57;;;;;;;19.13;13.83;;;;;;;;;;5125220;27;20529;-71
2022/03/31 10:12:28;;;;;;;19.40;13.70;;;;;;;;;;5133464;27;20439;-70
2022/03/31 10:14:59;;;;;;;19.43;13.00;;;;;;;;;;5132898;27;20997;-71
2022/03/31 10:17:29;;;;;;;17.80;12.00;;;;;;;;;;5133376;27;20450;-70
2022/03/31 10:20:07;;;;;;;16.47;13.63;;;;;;;;;;5132659;27;20449;-71
2022/03/31 10:25:19;;;;;;;19.43;14.10;;;;;;;;;;5132783;27;20413;-71
2022/03/31 10:27:47;;;;;;;19.30;14.50;;;;;;;;;;5133214;27;20774;-71
2022/03/31 10:30:16;;;;;;;17.77;13.03;;;;;;;;;;5132495;27;20473;-70
2022/03/31 10:32:57;;;;;;;16.57;13.20;;;;;;;;;;5132847;27;20482;-70
2022/03/31 10:35:26;;;;;;;23.20;13.67;;;;;;;;;;5108813;27;20533;-71
2022/03/31 10:37:54;;;;;;;15.57;12.30;;;;;;;;;;5119006;27;20452;-70
2022/03/31 10:40:32;;;;;;;16.33;13.07;;;;;;;;;;5092379;28;20456;-71
2022/03/31 10:42:59;;;;;;;17.23;13.10;;;;;;;;;;5091835;28;21011;-71
2022/03/31 10:45:36;;;;;;;18.00;13.77;;;;;;;;;;5092432;28;20540;-71
2022/03/31 10:48:15;;;;;;;17.57;13.70;;;;;;;;;;5091153;28;20871;-70
2022/03/31 10:50:42;;;;;;;19.40;13.40;;;;;;;;;;5091815;28;20455;-71
2022/03/31 10:53:09;;;;;;;19.77;13.80;;;;;;;;;;5091504;28;20586;-71
2022/03/31 10:55:38;;;;;;;20.67;12.40;;;;;;;;;;5092044;28;20440;-71
2022/03/31 10:58:06;;;;;;;20.67;14.03;;;;;;;;;;5091145;28;20444;-72
2022/03/31 11:00:33;;;;;;;19.37;14.50;;;;;;;;;;5091823;28;20531;-71
2022/03/31 11:03:00;;;;;;;18.20;13.33;;;;;;;;;;5091127;28;20463;-71
2022/03/31 11:05:32;;;;;;;26.03;15.27;;;;;;;;;;5092040;28;20475;-71
2022/03/31 11:08:03;;;;;;;23.70;14.03;;;;;;;;;;5083629;28;20901;-71
2022/03/31 11:10:31;;;;;;;18.93;12.83;;;;;;;;;;5088288;28;20488;-70
2022/03/31 11:12:58;;;;;;;23.37;15.27;;;;;;;;;;5091320;28;20484;-71
2022/03/31 11:15:26;;;;;;;21.40;13.30;;;;;;;;;;5091579;28;20447;-71
2022/03/31 11:18:00;;;;;;;33.23;13.17;;;;;;;;;;5091322;28;20476;-71
2022/03/31 11:20:28;;;;;;;20.80;13.60;;;;;;;;;;5091777;28;20446;-71
2022/03/31 11:22:59;;;;;;;21.57;15.13;;;;;;;;;;5090030;28;20448;-71
2022/03/31 11:25:27;;;;;;;19.87;13.80;;;;;;;;;;5091487;28;20444;-71
2022/03/31 11:27:56;;;;;;;19.83;14.13;;;;;;;;;;5090870;28;20448;-71
2022/03/31 11:30:25;;;;;;;21.77;15.47;;;;;;;;;;5091499;28;20880;-71
2022/03/31 11:32:54;;;;;;;19.87;15.20;;;;;;;;;;5090974;28;20458;-71
2022/03/31 11:35:22;;;;;;;19.70;13.33;;;;;;;;;;5091532;28;20452;-70
2022/03/31 11:37:50;;;;;;;19.40;14.30;;;;;;;;;;5077153;28;20453;-70
2022/03/31 11:40:22;;;;;;;20.13;12.80;;;;;;;;;;5131175;27;20569;-71
2022/03/31 11:42:51;;;;;;;17.80;13.70;;;;;;;;;;5132222;27;20470;-70
2022/03/31 11:45:26;;;;;;;22.90;14.77;;;;;;;;;;5131267;27;20927;-71
2022/03/31 11:47:56;;;;;;;19.60;12.57;;;;;;;;;;5131179;27;20461;-71
2022/03/31 11:50:24;;;;;;;35.47;14.83;;;;;;;;;;5132117;27;20451;-70
2022/03/31 11:52:52;;;;;;;17.80;13.20;;;;;;;;;;5131803;27;20455;-71
2022/03/31 11:55:20;;;;;;;24.00;14.23;;;;;;;;;;5132226;27;20530;-71
2022/03/31 11:57:53;;;;;;;19.87;13.43;;;;;;;;;;5131345;28;20446;-70
2022/03/31 12:00:22;;;;;;;25.03;17.30;;;;;;;;;;5131945;28;20461;-71
2022/03/31 12:02:56;;;;;;;20.07;14.20;;;;;;;;;;5104401;28;20534;-71
2022/03/31 12:05:23;;;;;;;17.77;13.80;;;;;;;;;;5131873;28;20478;-69
2022/03/31 12:07:51;;;;;;;19.10;13.17;;;;;;;;;;5125031;28;21002;-70
2022/03/31 12:10:18;;;;;;;18.73;13.47;;;;;;;;;;5125498;28;20450;-71
2022/03/31 12:12:49;;;;;;;19.17;14.40;;;;;;;;;;5132086;28;20797;-71
2022/03/31 12:15:21;;;;;;;20.87;14.23;;;;;;;;;;5131116;28;20503;-71
2022/03/31 12:18:05;;;;;;;18.80;12.70;;;;;;;;;;5130810;28;20455;-71
2022/03/31 12:20:34;;;;;;;19.20;14.23;;;;;;;;;;5131660;28;20449;-71
2022/03/31 12:23:01;;;;;;;20.10;14.70;;;;;;;;;;5131142;28;20445;-71
2022/03/31 12:25:33;;;;;;;19.40;12.40;;;;;;;;;;5131640;28;20446;-70
2022/03/31 12:28:00;;;;;;;20.73;13.53;;;;;;;;;;5130605;28;20803;-70
2022/03/31 12:30:38;;;;;;;16.90;12.60;;;;;;;;;;5131528;28;20486;-71
2022/03/31 12:33:16;;;;;;;18.77;12.80;;;;;;;;;;5131942;27;20449;-71
2022/03/31 12:35:43;;;;;;;23.93;14.53;;;;;;;;;;5135716;27;20476;-71
2022/03/31 12:38:10;;;;;;;20.57;13.83;;;;;;;;;;5120373;27;20880;-72
2022/03/31 12:40:38;;;;;;;18.57;12.93;;;;;;;;;;5135249;27;20933;-71
2022/03/31 12:43:06;;;;;;;18.47;12.80;;;;;;;;;;5134852;27;20830;-72
2022/03/31 12:45:36;;;;;;;16.17;12.83;;;;;;;;;;5135563;27;20457;-72
2022/03/31 12:48:08;;;;;;;17.67;13.43;;;;;;;;;;5134433;27;20450;-72
2022/03/31 12:50:38;;;;;;;23.50;15.77;;;;;;;;;;5135330;27;20454;-71
2022/03/31 12:53:06;;;;;;;21.17;14.43;;;;;;;;;;5134399;27;20439;-71
2022/03/31 12:55:35;;;;;;;20.30;12.33;;;;;;;;;;5135056;27;20450;-71
2022/03/31 12:58:02;;;;;;;17.60;13.23;;;;;;;;;;5133908;27;21005;-70
2022/03/31 13:00:31;;;;;;;16.00;12.93;;;;;;;;;;5121707;27;20546;-71
2022/03/31 13:03:00;;;;;;;16.77;12.40;;;;;;;;;;5134698;27;20450;-70
2022/03/31 13:05:28;;;;;;;17.03;11.97;;;;;;;;;;5134959;27;20461;-71
2022/03/31 13:07:56;;;;;;;16.30;13.17;;;;;;;;;;5126954;27;20459;-71
2022/03/31 13:10:24;;;;;;;19.70;13.57;;;;;;;;;;5130331;27;20460;-71
2022/03/31 13:12:52;;;;;;;15.40;11.80;;;;;;;;;;5135111;27;20453;-70
2022/03/31 13:15:21;;;;;;;20.73;13.63;;;;;;;;;;5134764;27;20478;-71
2022/03/31 13:17:48;;;;;;;20.77;13.10;;;;;;;;;;5134262;27;20458;-71
2022/03/31 13:20:19;;;;;;;19.77;12.57;;;;;;;;;;5134076;27;20447;-72
2022/03/31 13:22:46;;;;;;;20.70;13.57;;;;;;;;;;5134885;27;20450;-71
2022/03/31 13:25:15;;;;;;;20.77;13.07;;;;;;;;;;5134052;27;20443;-70
2022/03/31 13:27:42;;;;;;;15.97;12.70;;;;;;;;;;5134028;27;20457;-71
2022/03/31 13:30:10;;;;;;;19.77;13.57;;;;;;;;;;5133721;27;20986;-70
2022/03/31 13:32:37;;;;;;;19.17;13.40;;;;;;;;;;5134483;27;20460;-70
2022/03/31 13:35:05;;;;;;;16.33;12.70;;;;;;;;;;5133472;27;21000;-71
2022/03/31 13:37:35;;;;;;;18.43;13.30;;;;;;;;;;5121558;27;20487;-71
2022/03/31 13:40:06;;;;;;;21.63;14.10;;;;;;;;;;5133155;27;20969;-70
2022/03/31 13:42:35;;;;;;;21.07;13.37;;;;;;;;;;5134373;27;20778;-71
2022/03/31 13:45:02;;;;;;;14.90;11.63;;;;;;;;;;5133179;27;20817;-71
2022/03/31 13:47:30;;;;;;;19.77;13.00;;;9.40;99.90;;;;;;5133807;27;20545;-70
2022/03/31 13:49:57;;;;;;;18.33;13.87;;;11.10;99.90;;;;;;5133914;27;20443;-70
2022/03/31 13:52:24;;;;;;;16.60;11.97;;;11.10;99.90;;;;;;5134205;27;20807;-71
2022/03/31 13:54:53;;;;;;;15.60;12.10;;;10.90;99.90;;;;;;5134314;27;20509;-70